createdAt,value
2023-02-05T00:00:37.087Z,39.50
2023-02-05T00:03:29.517Z,37.60
2023-02-05T00:06:02.052Z,49.10
2023-02-05T00:08:35.447Z,32.90
2023-02-05T00:11:09.782Z,31.60
2023-02-05T00:13:45.005Z,38.20
2023-02-05T00:16:19.918Z,127.20
2023-02-05T00:18:52.729Z,74.90
2023-02-05T00:21:25.967Z,62.30
2023-02-05T00:23:58.372Z,108.40
2023-02-05T00:26:30.967Z,49.40
2023-02-05T00:29:03.478Z,126.80
2023-02-05T00:31:36.175Z,80.30
2023-02-05T00:34:08.828Z,56.40
2023-02-05T00:36:41.405Z,48.40
2023-02-05T00:39:14.831Z,75.30
2023-02-05T00:41:47.354Z,30.70
2023-02-05T00:44:19.804Z,19.80
2023-02-05T00:46:52.283Z,17.70
2023-02-05T00:49:24.701Z,17.70
2023-02-05T00:51:57.172Z,15.80
2023-02-05T00:54:29.681Z,14.60
2023-02-05T00:57:02.105Z,15.00
2023-02-05T00:59:34.671Z,15.00
2023-02-05T01:02:07.286Z,15.90
2023-02-05T01:04:40.121Z,17.00
2023-02-05T01:07:12.621Z,16.30
2023-02-05T01:09:45.970Z,13.90
2023-02-05T01:12:18.497Z,16.40
2023-02-05T01:14:51.179Z,14.60
2023-02-05T01:17:24.150Z,18.40
2023-02-05T01:19:57.030Z,18.50
2023-02-05T01:22:29.807Z,18.60
2023-02-05T01:25:03.035Z,16.30
2023-02-05T01:27:36.689Z,19.10
2023-02-05T01:30:11.914Z,18.50
2023-02-05T01:35:15.343Z,16.50
2023-02-05T01:37:48.018Z,14.40
2023-02-05T01:40:20.722Z,15.30
2023-02-05T01:42:53.276Z,16.00
2023-02-05T01:46:08.185Z,22.00
2023-02-05T01:48:45.313Z,24.40
2023-02-05T01:51:18.490Z,29.70
2023-02-05T01:53:51.712Z,30.00
2023-02-05T01:56:27.537Z,27.00
2023-02-05T01:59:04.728Z,26.80
2023-02-05T02:01:38.808Z,23.40
2023-02-05T02:04:12.749Z,23.90
2023-02-05T02:06:45.398Z,23.40
2023-02-05T02:09:17.872Z,21.20
2023-02-05T02:11:50.579Z,18.70
2023-02-05T02:14:24.873Z,23.60
2023-02-05T02:16:58.476Z,18.20
2023-02-05T02:19:40.064Z,20.20
2023-02-05T02:22:44.361Z,20.10
2023-02-05T02:25:46.048Z,17.90
2023-02-05T02:28:26.381Z,14.60
2023-02-05T02:31:04.099Z,13.50
2023-02-05T02:33:43.955Z,14.00
2023-02-05T02:36:22.854Z,16.50
2023-02-05T02:39:01.545Z,14.50
2023-02-05T02:41:41.810Z,12.20
2023-02-05T02:44:18.487Z,13.20
2023-02-05T02:46:55.098Z,18.10
2023-02-05T02:49:34.218Z,18.90
2023-02-05T02:52:10.352Z,18.60
2023-02-05T02:54:47.955Z,17.30
2023-02-05T02:57:24.275Z,18.50
2023-02-05T03:00:01.566Z,17.90
2023-02-05T03:02:37.736Z,18.20
2023-02-05T03:05:15.158Z,15.10
2023-02-05T03:07:50.990Z,13.20
2023-02-05T03:10:33.500Z,13.50
2023-02-05T03:13:06.051Z,12.90
2023-02-05T03:15:39.551Z,11.80
2023-02-05T03:18:12.157Z,10.80
2023-02-05T03:20:49.906Z,10.10
2023-02-05T03:23:22.531Z,10.40
2023-02-05T03:25:55.521Z,8.30
2023-02-05T03:28:33.754Z,9.00
2023-02-05T03:31:11.980Z,8.90
2023-02-05T03:33:54.843Z,9.90
2023-02-05T03:36:40.748Z,8.60
2023-02-05T03:39:26.720Z,8.00
2023-02-05T03:42:11.720Z,7.80
2023-02-05T03:45:16.313Z,8.30
2023-02-05T03:48:02.462Z,7.50
2023-02-05T03:50:42.442Z,7.00
2023-02-05T03:53:23.219Z,7.80
2023-02-05T03:56:04.759Z,7.40
2023-02-05T03:58:43.159Z,9.20
2023-02-05T04:01:16.246Z,10.00
2023-02-05T04:03:49.895Z,7.90
2023-02-05T04:06:22.513Z,6.80
2023-02-05T04:08:55.919Z,6.50
2023-02-05T04:11:29.496Z,7.20
2023-02-05T04:14:02.278Z,7.70
2023-02-05T04:16:34.778Z,12.90
2023-02-05T04:19:08.282Z,12.20
2023-02-05T04:21:40.911Z,9.70
2023-02-05T04:24:13.459Z,9.60
2023-02-05T04:26:46.575Z,9.70
2023-02-05T04:29:19.282Z,11.50
2023-02-05T04:31:52.707Z,12.20
2023-02-05T04:34:25.489Z,12.50
2023-02-05T04:36:58.254Z,12.50
2023-02-05T04:39:31.827Z,12.30
2023-02-05T04:42:04.362Z,12.00
2023-02-05T04:44:36.800Z,11.10
2023-02-05T04:47:09.430Z,9.20
2023-02-05T04:49:42.059Z,8.10
2023-02-05T04:52:14.467Z,7.50
2023-02-05T04:54:46.936Z,8.90
2023-02-05T04:57:19.336Z,11.20
2023-02-05T04:59:51.860Z,9.30
2023-02-05T05:02:24.675Z,10.00
2023-02-05T05:04:57.195Z,12.00
2023-02-05T05:07:32.537Z,14.40
2023-02-05T05:10:07.337Z,16.80
2023-02-05T05:12:40.282Z,18.30
2023-02-05T05:15:13.235Z,12.70
2023-02-05T05:17:45.716Z,9.00
2023-02-05T05:20:18.677Z,9.80
2023-02-05T05:22:51.208Z,10.90
2023-02-05T05:25:23.986Z,11.10
2023-02-05T05:27:56.535Z,10.60
2023-02-05T05:30:29.093Z,13.40
2023-02-05T05:33:01.596Z,11.40
2023-02-05T05:35:34.981Z,10.20
2023-02-05T05:38:08.299Z,8.60
2023-02-05T05:40:58.408Z,10.90
2023-02-05T05:43:49.625Z,31.30
2023-02-05T05:46:24.633Z,36.00
2023-02-05T05:48:58.613Z,29.60
2023-02-05T05:51:32.781Z,17.90
2023-02-05T05:54:05.408Z,14.20
2023-02-05T05:56:38.415Z,15.70
2023-02-05T05:59:12.502Z,18.70
2023-02-05T06:01:44.927Z,38.20
2023-02-05T06:04:17.408Z,35.30
2023-02-05T06:06:49.811Z,16.90
2023-02-05T06:09:24.116Z,24.50
2023-02-05T06:11:56.528Z,17.30
2023-02-05T06:14:29.047Z,20.80
2023-02-05T06:17:01.559Z,18.90
2023-02-05T06:19:34.340Z,17.80
2023-02-05T06:22:06.857Z,20.70
2023-02-05T06:24:39.302Z,20.30
2023-02-05T06:27:11.852Z,18.20
2023-02-05T06:29:44.330Z,14.90
2023-02-05T06:32:16.882Z,15.70
2023-02-05T06:34:49.306Z,16.90
2023-02-05T06:37:24.959Z,14.50
2023-02-05T06:39:57.482Z,12.90
2023-02-05T06:42:29.883Z,11.90
2023-02-05T06:45:02.432Z,14.00
2023-02-05T06:47:34.782Z,17.00
2023-02-05T06:50:08.220Z,15.80
2023-02-05T06:52:40.756Z,15.80
2023-02-05T06:55:13.465Z,15.50
2023-02-05T06:57:46.046Z,16.90
2023-02-05T07:00:19.541Z,16.80
2023-02-05T07:02:53.308Z,17.10
2023-02-05T07:05:25.952Z,18.50
2023-02-05T07:07:58.456Z,41.30
2023-02-05T07:10:30.968Z,35.60
2023-02-05T07:13:05.739Z,20.10
2023-02-05T07:15:39.660Z,14.00
2023-02-05T07:18:12.125Z,12.20
2023-02-05T07:20:44.574Z,12.30
2023-02-05T07:23:16.978Z,13.70
2023-02-05T07:25:49.523Z,10.90
2023-02-05T07:28:22.026Z,13.30
2023-02-05T07:30:55.596Z,16.40
2023-02-05T07:33:28.010Z,93.80
2023-02-05T07:36:03.162Z,99.90
2023-02-05T07:41:08.391Z,44.20
2023-02-05T07:43:41.458Z,81.30
2023-02-05T07:46:15.687Z,61.20
2023-02-05T07:48:48.082Z,66.70
2023-02-05T07:51:24.616Z,58.40
2023-02-05T07:53:57.037Z,57.80
2023-02-05T07:56:29.410Z,48.10
2023-02-05T07:59:01.900Z,58.40
2023-02-05T08:01:34.360Z,57.80
2023-02-05T08:04:06.999Z,47.70
2023-02-05T08:06:39.566Z,53.20
2023-02-05T08:09:14.453Z,56.00
2023-02-05T08:11:46.952Z,50.90
2023-02-05T08:14:19.349Z,45.50
2023-02-05T08:16:51.775Z,41.00
2023-02-05T08:19:24.207Z,49.00
2023-02-05T08:21:56.646Z,39.20
2023-02-05T08:24:29.208Z,28.10
2023-02-05T08:27:01.777Z,15.30
2023-02-05T08:29:34.154Z,11.60
2023-02-05T08:32:08.661Z,11.40
2023-02-05T08:34:41.099Z,10.60
2023-02-05T08:37:13.859Z,14.70
2023-02-05T08:39:46.537Z,25.50
2023-02-05T08:42:19.120Z,21.90
2023-02-05T08:44:51.794Z,19.70
2023-02-05T08:47:25.124Z,17.10
2023-02-05T08:49:57.898Z,15.90
2023-02-05T08:52:30.424Z,15.20
2023-02-05T08:55:02.978Z,16.80
2023-02-05T08:57:35.456Z,16.20
2023-02-05T09:00:09.566Z,18.90
2023-02-05T09:02:44.140Z,18.80
2023-02-05T09:05:16.627Z,20.80
2023-02-05T09:07:49.064Z,23.80
2023-02-05T09:10:21.628Z,27.30
2023-02-05T09:12:54.118Z,24.10
2023-02-05T09:15:26.726Z,23.70
2023-02-05T09:17:59.176Z,23.30
2023-02-05T09:20:31.625Z,19.30
2023-02-05T09:23:04.309Z,18.80
2023-02-05T09:25:37.783Z,19.10
2023-02-05T09:28:11.733Z,15.80
2023-02-05T09:30:46.872Z,16.00
2023-02-05T09:35:50.199Z,17.70
2023-02-05T09:38:22.665Z,19.60
2023-02-05T09:40:59.927Z,13.60
2023-02-05T09:43:45.308Z,15.10
2023-02-05T09:46:25.812Z,13.40
2023-02-05T09:49:03.216Z,13.80
2023-02-05T09:51:38.819Z,13.70
2023-02-05T09:54:17.839Z,12.50
2023-02-05T09:56:52.629Z,10.70
2023-02-05T09:59:27.577Z,11.50
2023-02-05T10:02:02.970Z,10.40
2023-02-05T10:04:36.850Z,17.20
2023-02-05T10:07:31.551Z,11.40
2023-02-05T10:10:22.749Z,9.70
2023-02-05T10:13:23.705Z,12.30
2023-02-05T10:16:31.150Z,11.00
2023-02-05T10:19:48.480Z,10.30
2023-02-05T10:22:27.939Z,9.40
2023-02-05T10:25:16.929Z,10.50
2023-02-05T10:27:59.372Z,10.70
2023-02-05T10:30:38.383Z,9.30
2023-02-05T10:33:20.220Z,10.60
2023-02-05T10:36:01.525Z,9.40
2023-02-05T10:38:37.942Z,11.90
2023-02-05T10:41:27.670Z,12.20
2023-02-05T10:44:06.109Z,18.50
2023-02-05T10:46:41.306Z,98.10
2023-02-05T10:51:50.124Z,22.50
2023-02-05T10:54:28.033Z,56.70
2023-02-05T10:57:01.954Z,41.40
2023-02-05T10:59:37.586Z,59.70
2023-02-05T11:02:12.409Z,59.20
2023-02-05T11:04:48.608Z,63.90
2023-02-05T11:07:26.217Z,37.20
2023-02-05T11:10:14.024Z,41.50
2023-02-05T11:12:49.729Z,20.50
2023-02-05T11:15:25.460Z,17.80
2023-02-05T11:18:02.719Z,21.90
2023-02-05T11:20:38.402Z,21.20
2023-02-05T11:23:19.314Z,19.40
2023-02-05T11:25:56.822Z,19.40
2023-02-05T11:28:33.030Z,21.70
2023-02-05T11:31:25.523Z,18.20
2023-02-05T11:34:16.272Z,44.80
2023-02-05T11:36:54.922Z,41.90
2023-02-05T11:39:36.548Z,22.70
2023-02-05T11:42:19.353Z,75.00
2023-02-05T11:44:54.793Z,23.60
2023-02-05T11:47:32.472Z,31.60
2023-02-05T11:50:06.567Z,19.80
2023-02-05T11:52:40.527Z,13.80
2023-02-05T11:55:29.144Z,13.30
2023-02-05T11:58:07.412Z,14.80
2023-02-05T12:00:51.135Z,15.70
2023-02-05T12:03:24.467Z,15.90
2023-02-05T12:06:04.594Z,15.50
2023-02-05T12:08:44.268Z,13.40
2023-02-05T12:11:31.230Z,11.50
2023-02-05T12:14:12.535Z,11.90
2023-02-05T12:16:52.657Z,12.30
2023-02-05T12:19:33.294Z,10.40
2023-02-05T12:22:17.875Z,9.30
2023-02-05T12:24:59.767Z,10.10
2023-02-05T12:27:49.595Z,14.60
2023-02-05T12:30:39.800Z,8.60
2023-02-05T12:33:28.429Z,12.10
2023-02-05T12:36:11.940Z,10.80
2023-02-05T12:38:58.681Z,11.20
2023-02-05T12:41:42.600Z,9.00
2023-02-05T12:44:27.600Z,10.00
2023-02-05T12:47:14.366Z,8.90
2023-02-05T12:50:12.206Z,7.30
2023-02-05T12:53:12.610Z,7.80
2023-02-05T12:56:00.288Z,14.80
2023-02-05T12:58:41.007Z,12.60
2023-02-05T13:01:21.165Z,8.60
2023-02-05T13:04:00.864Z,7.90
2023-02-05T13:06:38.048Z,8.80
2023-02-05T13:09:17.716Z,8.20
2023-02-05T13:11:57.334Z,7.20
2023-02-05T13:14:35.672Z,20.20
2023-02-05T13:17:13.346Z,24.40
2023-02-05T13:19:50.968Z,29.80
2023-02-05T13:22:45.171Z,67.20
2023-02-05T13:25:44.160Z,52.40
2023-02-05T13:28:43.866Z,35.30
2023-02-05T13:31:25.733Z,15.50
2023-02-05T13:34:04.693Z,10.70
2023-02-05T13:37:13.052Z,13.40
2023-02-05T13:40:05.373Z,9.30
2023-02-05T13:43:02.425Z,11.10
2023-02-05T13:46:06.234Z,10.40
2023-02-05T13:49:22.554Z,13.20
2023-02-05T13:52:18.797Z,12.40
2023-02-05T13:55:16.902Z,13.80
2023-02-05T13:58:12.311Z,15.50
2023-02-05T14:00:50.867Z,27.60
2023-02-05T14:03:35.303Z,20.20
2023-02-05T14:06:23.032Z,44.10
2023-02-05T14:09:05.652Z,16.30
2023-02-05T14:11:53.982Z,7.20
2023-02-05T14:14:30.140Z,7.50
2023-02-05T14:17:04.378Z,9.80
2023-02-05T14:20:01.276Z,7.30
2023-02-05T14:22:40.210Z,7.20
2023-02-05T14:26:02.170Z,8.50
2023-02-05T14:28:52.769Z,7.00
2023-02-05T14:31:48.644Z,7.60
2023-02-05T14:34:51.376Z,8.70
2023-02-05T14:37:31.304Z,10.20
2023-02-05T14:40:22.215Z,10.70
2023-02-05T14:43:09.690Z,33.10
2023-02-05T14:45:49.235Z,135.90
2023-02-05T14:48:26.870Z,54.30
2023-02-05T14:51:18.502Z,119.30
2023-02-05T14:54:00.930Z,69.10
2023-02-05T14:56:40.211Z,87.50
2023-02-05T14:59:24.752Z,53.40
2023-02-05T15:01:57.557Z,105.80
2023-02-05T15:04:41.938Z,109.30
2023-02-05T15:07:21.113Z,261.30
2023-02-05T15:09:58.957Z,189.50
2023-02-05T15:12:49.320Z,112.10
2023-02-05T15:15:33.703Z,48.00
2023-02-05T15:18:16.327Z,43.10
2023-02-05T15:20:52.852Z,86.30
2023-02-05T15:23:35.156Z,41.60
2023-02-05T15:26:16.030Z,36.60
2023-02-05T15:28:57.363Z,32.90
2023-02-05T15:31:35.846Z,33.60
2023-02-05T15:34:30.661Z,27.10
2023-02-05T15:37:06.842Z,34.60
2023-02-05T15:39:48.768Z,29.70
2023-02-05T15:42:25.336Z,35.00
2023-02-05T15:44:57.765Z,80.50
2023-02-05T15:47:30.561Z,33.70
2023-02-05T15:50:05.463Z,47.00
2023-02-05T15:52:38.697Z,49.50
2023-02-05T15:55:17.778Z,36.20
2023-02-05T15:57:50.699Z,42.80
2023-02-05T16:00:27.346Z,52.00
2023-02-05T16:03:02.591Z,54.10
2023-02-05T16:05:36.593Z,50.30
2023-02-05T16:08:28.202Z,40.10
2023-02-05T16:11:05.471Z,56.50
2023-02-05T16:13:37.927Z,63.40
2023-02-05T16:16:18.418Z,70.20
2023-02-05T16:18:57.443Z,89.40
2023-02-05T16:21:34.043Z,53.20
2023-02-05T16:24:10.723Z,166.50
2023-02-05T16:26:47.806Z,45.90
2023-02-05T16:29:31.510Z,29.60
2023-02-05T16:32:15.654Z,30.50
2023-02-05T16:34:48.616Z,32.60
2023-02-05T16:37:23.884Z,33.60
2023-02-05T16:42:38.224Z,41.40
2023-02-05T16:45:31.658Z,37.00
2023-02-05T16:48:26.361Z,49.50
2023-02-05T16:50:59.989Z,55.30
2023-02-05T16:53:35.103Z,48.40
2023-02-05T16:58:50.703Z,86.30
2023-02-05T17:01:29.066Z,70.20
2023-02-05T17:04:01.748Z,57.70
2023-02-05T17:06:38.244Z,66.20
2023-02-05T17:09:30.561Z,52.50
2023-02-05T17:12:33.888Z,42.90
2023-02-05T17:15:27.560Z,42.20
2023-02-05T17:18:06.489Z,42.10
2023-02-05T17:20:40.701Z,39.70
2023-02-05T17:23:14.727Z,44.30
2023-02-05T17:25:55.221Z,44.60
2023-02-05T17:28:29.984Z,40.40
2023-02-05T17:31:02.495Z,39.90
2023-02-05T17:33:35.104Z,37.30
2023-02-05T17:36:09.957Z,37.20
2023-02-05T17:38:42.317Z,41.90
2023-02-05T17:41:36.579Z,34.50
2023-02-05T17:44:11.405Z,48.20
2023-02-05T17:46:44.394Z,58.20
2023-02-05T17:49:16.953Z,50.00
2023-02-05T17:51:49.453Z,58.00
2023-02-05T17:54:25.562Z,36.50
2023-02-05T17:57:03.039Z,29.20
2023-02-05T17:59:35.663Z,34.80
2023-02-05T18:02:08.397Z,38.50
2023-02-05T18:04:41.312Z,42.90
2023-02-05T18:07:21.668Z,40.00
2023-02-05T18:09:54.112Z,34.60
2023-02-05T18:12:27.047Z,31.80
2023-02-05T18:14:59.601Z,30.00
2023-02-05T18:17:32.046Z,29.50
2023-02-05T18:20:05.092Z,29.60
2023-02-05T18:22:37.960Z,29.20
2023-02-05T18:25:11.272Z,36.70
2023-02-05T18:27:43.808Z,37.40
2023-02-05T18:30:17.285Z,36.30
2023-02-05T18:32:50.034Z,41.20
2023-02-05T18:35:22.586Z,44.90
2023-02-05T18:37:55.136Z,39.40
2023-02-05T18:40:27.582Z,38.10
2023-02-05T18:43:00.545Z,43.40
2023-02-05T18:45:32.962Z,48.00
2023-02-05T18:48:05.416Z,44.70
2023-02-05T18:50:37.939Z,68.70
2023-02-05T18:53:10.466Z,109.40
2023-02-05T18:55:42.913Z,108.80
2023-02-05T18:58:15.436Z,86.90
2023-02-05T19:00:47.815Z,102.80
2023-02-05T19:03:20.327Z,109.80
2023-02-05T19:05:53.303Z,50.70
2023-02-05T19:08:26.059Z,41.70
2023-02-05T19:10:58.893Z,90.00
2023-02-05T19:13:31.498Z,57.00
2023-02-05T19:16:11.593Z,45.80
2023-02-05T19:18:45.709Z,43.80
2023-02-05T19:21:20.465Z,71.50
2023-02-05T19:23:55.893Z,97.50
2023-02-05T19:26:30.105Z,74.90
2023-02-05T19:29:05.187Z,63.00
2023-02-05T19:31:39.977Z,66.40
2023-02-05T19:34:12.979Z,48.80
2023-02-05T19:36:45.846Z,46.00
2023-02-05T19:39:18.544Z,58.40
2023-02-05T19:41:51.989Z,60.00
2023-02-05T19:44:26.574Z,56.80
2023-02-05T19:46:58.900Z,56.50
2023-02-05T19:49:31.481Z,56.30
2023-02-05T19:52:04.257Z,64.90
2023-02-05T19:54:36.858Z,63.20
2023-02-05T19:57:09.538Z,94.30
2023-02-05T19:59:41.932Z,91.60
2023-02-05T20:02:19.358Z,91.40
2023-02-05T20:04:52.393Z,110.10
2023-02-05T20:07:24.818Z,89.00
2023-02-05T20:09:57.375Z,95.10
2023-02-05T20:12:30.019Z,59.60
2023-02-05T20:15:02.809Z,74.40
2023-02-05T20:17:35.386Z,68.70
2023-02-05T20:20:22.216Z,66.60
2023-02-05T20:23:01.031Z,66.20
2023-02-05T20:25:33.698Z,67.30
2023-02-05T20:28:06.782Z,61.90
2023-02-05T20:31:00.238Z,58.60
2023-02-05T20:33:32.963Z,74.40
2023-02-05T20:36:11.290Z,61.10
2023-02-05T20:38:43.953Z,58.10
2023-02-05T20:41:18.548Z,59.90
2023-02-05T20:43:51.814Z,85.20
2023-02-05T20:46:24.958Z,71.60
2023-02-05T20:48:57.412Z,63.10
2023-02-05T20:51:30.510Z,63.60
2023-02-05T20:54:03.233Z,58.70
2023-02-05T20:56:36.073Z,70.70
2023-02-05T20:59:10.976Z,68.20
2023-02-05T21:01:43.488Z,73.50
2023-02-05T21:04:16.184Z,77.80
2023-02-05T21:06:49.580Z,88.60
2023-02-05T21:09:22.748Z,101.60
2023-02-05T21:11:55.739Z,94.70
2023-02-05T21:14:28.497Z,127.60
2023-02-05T21:17:02.757Z,113.00
2023-02-05T21:19:35.413Z,331.30
2023-02-05T21:22:07.968Z,217.50
2023-02-05T21:24:41.421Z,130.60
2023-02-05T21:27:13.849Z,109.80
2023-02-05T21:29:46.431Z,123.50
2023-02-05T21:32:19.541Z,122.80
2023-02-05T21:34:52.365Z,93.00
2023-02-05T21:37:25.055Z,95.10
2023-02-05T21:40:08.368Z,114.90
2023-02-05T21:42:41.823Z,102.00
2023-02-05T21:45:14.554Z,85.90
2023-02-05T21:47:47.029Z,88.90
2023-02-05T21:50:20.054Z,75.80
2023-02-05T21:52:55.087Z,65.20
2023-02-05T21:55:27.580Z,64.10
2023-02-05T21:58:00.162Z,84.70
2023-02-05T22:00:32.828Z,87.30
2023-02-05T22:03:05.653Z,85.30
2023-02-05T22:05:38.432Z,79.40
2023-02-05T22:08:12.040Z,66.60
2023-02-05T22:10:44.613Z,59.40
2023-02-05T22:13:17.397Z,63.50
2023-02-05T22:15:50.102Z,59.80
2023-02-05T22:18:22.678Z,58.10
2023-02-05T22:20:55.132Z,54.80
2023-02-05T22:23:27.637Z,54.60
2023-02-05T22:26:00.440Z,60.80
2023-02-05T22:28:33.349Z,59.80
2023-02-05T22:31:07.736Z,68.40
2023-02-05T22:33:41.806Z,71.30
2023-02-05T22:36:16.872Z,76.00
2023-02-05T22:41:23.226Z,52.50
2023-02-05T22:46:29.405Z,56.00
2023-02-05T22:49:03.441Z,84.40
2023-02-05T22:51:38.016Z,83.50
2023-02-05T22:54:13.610Z,103.50
2023-02-05T22:56:46.578Z,207.60
2023-02-05T22:59:19.209Z,104.80
2023-02-05T23:01:51.884Z,96.80
2023-02-05T23:04:24.897Z,121.30
2023-02-05T23:06:57.546Z,88.60
2023-02-05T23:09:30.060Z,83.00
2023-02-05T23:12:03.356Z,137.00
2023-02-05T23:14:36.333Z,179.60
2023-02-05T23:17:08.928Z,168.00
2023-02-05T23:19:41.299Z,76.10
2023-02-05T23:22:13.836Z,65.90
2023-02-05T23:24:47.231Z,67.50
2023-02-05T23:27:19.811Z,68.60
2023-02-05T23:29:52.473Z,70.00
2023-02-05T23:32:25.097Z,82.70
2023-02-05T23:34:57.825Z,72.20
2023-02-05T23:37:30.685Z,66.40
2023-02-05T23:40:03.163Z,60.90
2023-02-05T23:42:35.794Z,64.00
2023-02-05T23:45:10.558Z,68.40
2023-02-05T23:47:43.125Z,67.50
2023-02-05T23:50:15.477Z,68.90
2023-02-05T23:52:48.026Z,67.00
2023-02-05T23:55:21.066Z,67.50
2023-02-05T23:57:53.772Z,71.60
